createdAt,value
2022-09-11T00:02:16.130Z,29.83
2022-09-11T00:05:21.168Z,31.45
2022-09-11T00:08:31.165Z,40.13
2022-09-11T00:11:36.921Z,28.55
2022-09-11T00:14:42.064Z,36.85
2022-09-11T00:17:47.324Z,44.22
2022-09-11T00:20:53.190Z,34.13
2022-09-11T00:24:00.850Z,35.20
2022-09-11T00:27:06.957Z,42.70
2022-09-11T00:30:12.808Z,37.72
2022-09-11T00:33:18.975Z,34.75
2022-09-11T00:36:24.745Z,32.75
2022-09-11T00:39:33.098Z,36.00
2022-09-11T00:42:38.097Z,37.38
2022-09-11T00:45:43.347Z,39.65
2022-09-11T00:48:50.351Z,33.78
2022-09-11T00:51:57.597Z,34.92
2022-09-11T00:55:08.369Z,44.78
2022-09-11T00:58:15.481Z,30.08
2022-09-11T01:01:20.720Z,40.80
2022-09-11T01:04:26.369Z,40.42
2022-09-11T01:07:32.356Z,35.85
2022-09-11T01:10:43.432Z,44.22
2022-09-11T01:13:52.483Z,37.58
2022-09-11T01:17:00.135Z,51.97
2022-09-11T01:20:13.089Z,43.00
2022-09-11T01:23:36.104Z,51.20
2022-09-11T01:26:47.894Z,44.38
2022-09-11T01:29:59.585Z,46.15
2022-09-11T01:33:17.443Z,53.28
2022-09-11T01:36:23.900Z,62.25
2022-09-11T01:39:32.776Z,49.22
2022-09-11T01:45:48.857Z,50.85
2022-09-11T01:48:56.679Z,58.40
2022-09-11T01:52:03.876Z,54.72
2022-09-11T01:55:13.732Z,58.00
2022-09-11T01:58:23.664Z,63.95
2022-09-11T02:01:33.184Z,61.47
2022-09-11T02:04:41.371Z,55.38
2022-09-11T02:07:49.622Z,59.22
2022-09-11T02:10:57.274Z,60.88
2022-09-11T02:14:04.716Z,59.78
2022-09-11T02:17:18.634Z,57.50
2022-09-11T02:20:23.885Z,61.92
2022-09-11T02:23:29.601Z,53.83
2022-09-11T02:26:36.937Z,59.83
2022-09-11T02:29:42.485Z,50.95
2022-09-11T02:32:50.833Z,52.92
2022-09-11T02:35:57.407Z,49.30
2022-09-11T02:39:08.997Z,55.67
2022-09-11T02:42:23.167Z,54.67
2022-09-11T02:45:33.633Z,60.70
2022-09-11T02:48:46.879Z,57.50
2022-09-11T02:51:56.767Z,51.63
2022-09-11T02:55:07.747Z,55.17
2022-09-11T02:58:16.425Z,55.92
2022-09-11T03:01:22.675Z,51.63
2022-09-11T03:04:32.484Z,47.35
2022-09-11T03:07:37.905Z,44.95
2022-09-11T03:10:43.312Z,47.30
2022-09-11T03:13:48.452Z,49.00
2022-09-11T03:16:57.085Z,48.65
2022-09-11T03:20:05.580Z,41.77
2022-09-11T03:23:10.973Z,40.00
2022-09-11T03:26:17.603Z,49.35
2022-09-11T03:29:26.133Z,46.63
2022-09-11T03:32:32.672Z,45.28
2022-09-11T03:35:40.581Z,46.10
2022-09-11T03:38:46.697Z,45.40
2022-09-11T03:41:54.501Z,41.60
2022-09-11T03:45:01.367Z,41.35
2022-09-11T03:48:09.143Z,38.47
2022-09-11T03:51:17.993Z,43.10
2022-09-11T03:54:23.078Z,41.38
2022-09-11T03:57:29.191Z,40.88
2022-09-11T04:00:34.320Z,44.47
2022-09-11T04:03:39.648Z,42.65
2022-09-11T04:06:49.303Z,44.72
2022-09-11T04:09:54.280Z,44.13
2022-09-11T04:12:59.591Z,47.53
2022-09-11T04:16:07.541Z,40.55
2022-09-11T04:19:15.151Z,46.72
2022-09-11T04:22:24.613Z,40.53
2022-09-11T04:25:29.893Z,42.97
2022-09-11T04:28:37.005Z,39.72
2022-09-11T04:31:43.124Z,35.05
2022-09-11T04:34:50.603Z,40.45
2022-09-11T04:37:58.406Z,37.83
2022-09-11T04:41:04.441Z,38.05
2022-09-11T04:44:09.686Z,28.63
2022-09-11T04:47:20.132Z,39.70
2022-09-11T04:50:25.802Z,42.55
2022-09-11T04:53:51.345Z,31.92
2022-09-11T04:56:58.151Z,47.35
2022-09-11T05:00:03.089Z,42.97
2022-09-11T05:03:09.207Z,42.22
2022-09-11T05:06:16.766Z,39.88
2022-09-11T05:09:25.935Z,36.55
2022-09-11T05:12:32.533Z,30.23
2022-09-11T05:15:37.808Z,30.13
2022-09-11T05:18:43.658Z,31.63
2022-09-11T05:21:49.663Z,27.35
2022-09-11T05:24:57.867Z,24.25
2022-09-11T05:28:03.718Z,22.77
2022-09-11T05:31:13.974Z,18.83
2022-09-11T05:34:21.441Z,23.85
2022-09-11T05:37:27.981Z,17.23
2022-09-11T05:40:35.849Z,25.67
2022-09-11T05:43:42.035Z,24.85
2022-09-11T05:46:48.716Z,23.17
2022-09-11T05:49:53.742Z,16.80
2022-09-11T05:52:59.204Z,29.48
2022-09-11T05:56:12.575Z,27.98
2022-09-11T05:59:18.669Z,23.10
2022-09-11T06:02:26.309Z,18.10
2022-09-11T06:05:33.752Z,15.85
2022-09-11T06:08:42.694Z,17.98
2022-09-11T06:11:50.887Z,19.52
2022-09-11T06:14:56.562Z,15.82
2022-09-11T06:18:02.412Z,16.35
2022-09-11T06:21:08.705Z,16.58
2022-09-11T06:24:20.625Z,14.98
2022-09-11T06:27:28.597Z,14.88
2022-09-11T06:30:33.915Z,13.70
2022-09-11T06:33:40.000Z,19.38
2022-09-11T06:36:48.724Z,18.60
2022-09-11T06:39:57.194Z,12.38
2022-09-11T06:43:07.857Z,16.80
2022-09-11T06:46:14.625Z,14.77
2022-09-11T06:49:20.203Z,17.60
2022-09-11T06:52:46.135Z,21.33
2022-09-11T06:56:08.101Z,18.98
2022-09-11T06:59:16.274Z,12.90
2022-09-11T07:02:21.625Z,15.65
2022-09-11T07:05:27.641Z,6.97
2022-09-11T07:08:33.679Z,6.97
2022-09-11T07:11:44.078Z,6.78
2022-09-11T07:14:51.990Z,9.18
2022-09-11T07:17:58.226Z,7.72
2022-09-11T07:21:03.184Z,8.82
2022-09-11T07:24:09.216Z,8.77
2022-09-11T07:27:18.347Z,16.05
2022-09-11T07:30:27.573Z,11.85
2022-09-11T07:33:34.041Z,6.57
2022-09-11T07:36:42.266Z,5.80
2022-09-11T07:39:48.286Z,9.48
2022-09-11T07:42:57.383Z,6.93
2022-09-11T07:46:05.370Z,10.40
2022-09-11T07:49:11.656Z,5.82
2022-09-11T07:52:21.005Z,8.32
2022-09-11T07:55:32.992Z,6.78
2022-09-11T07:58:39.069Z,5.05
2022-09-11T08:01:46.946Z,7.95
2022-09-11T08:04:55.381Z,5.70
2022-09-11T08:08:01.308Z,6.30
2022-09-11T08:11:08.082Z,9.38
2022-09-11T08:14:15.594Z,4.90
2022-09-11T08:17:23.601Z,7.40
2022-09-11T08:20:28.980Z,8.50
2022-09-11T08:23:35.074Z,13.05
2022-09-11T08:26:40.354Z,7.10
2022-09-11T08:29:49.079Z,5.72
2022-09-11T08:32:57.356Z,16.35
2022-09-11T08:36:03.238Z,8.30
2022-09-11T08:39:09.301Z,5.88
2022-09-11T08:42:20.393Z,5.97
2022-09-11T08:45:29.159Z,8.55
2022-09-11T08:48:43.753Z,12.05
2022-09-11T08:51:50.297Z,6.25
2022-09-11T08:54:58.650Z,5.57
2022-09-11T08:58:09.186Z,7.60
2022-09-11T09:01:27.068Z,12.77
2022-09-11T09:04:53.419Z,13.45
2022-09-11T09:08:04.978Z,13.68
2022-09-11T09:11:15.792Z,9.20
2022-09-11T09:14:35.805Z,13.20
2022-09-11T09:17:43.808Z,9.48
2022-09-11T09:21:00.738Z,11.88
2022-09-11T09:24:08.081Z,5.28
2022-09-11T09:27:18.287Z,9.32
2022-09-11T09:30:24.907Z,12.15
2022-09-11T09:33:32.726Z,12.02
2022-09-11T09:39:48.104Z,8.80
2022-09-11T09:43:01.351Z,9.68
2022-09-11T09:46:17.206Z,7.18
2022-09-11T09:49:25.205Z,6.30
2022-09-11T09:52:36.441Z,10.63
2022-09-11T09:55:44.531Z,5.30
2022-09-11T09:58:55.449Z,7.13
2022-09-11T10:02:00.663Z,11.60
2022-09-11T10:05:09.745Z,6.25
2022-09-11T10:08:27.920Z,7.13
2022-09-11T10:11:36.039Z,13.82
2022-09-11T10:14:51.470Z,6.70
2022-09-11T10:17:59.951Z,5.05
2022-09-11T10:21:17.154Z,10.18
2022-09-11T10:24:26.633Z,8.45
2022-09-11T10:27:35.649Z,4.72
2022-09-11T10:30:42.407Z,8.35
2022-09-11T10:33:50.656Z,3.83
2022-09-11T10:40:05.928Z,5.68
2022-09-11T10:43:25.289Z,4.30
2022-09-11T10:46:41.479Z,3.03
2022-09-11T10:49:47.403Z,4.80
2022-09-11T10:53:02.685Z,8.57
2022-09-11T10:56:08.922Z,5.28
2022-09-11T10:59:20.383Z,5.10
2022-09-11T11:02:32.091Z,5.65
2022-09-11T11:05:43.808Z,4.45
2022-09-11T11:09:06.656Z,4.47
2022-09-11T11:12:21.354Z,4.82
2022-09-11T11:15:32.772Z,5.38
2022-09-11T11:18:47.938Z,3.90
2022-09-11T11:21:57.391Z,4.63
2022-09-11T11:25:08.225Z,5.43
2022-09-11T11:28:25.104Z,3.38
2022-09-11T11:31:42.501Z,5.75
2022-09-11T11:35:02.082Z,3.67
2022-09-11T11:38:14.195Z,4.38
2022-09-11T11:41:23.485Z,5.28
2022-09-11T11:44:33.385Z,4.53
2022-09-11T11:47:42.874Z,3.92
2022-09-11T11:50:48.958Z,4.95
2022-09-11T11:53:59.995Z,4.55
2022-09-11T11:57:08.696Z,5.25
2022-09-11T12:00:16.328Z,3.33
2022-09-11T12:03:26.339Z,3.97
2022-09-11T12:06:31.782Z,6.53
2022-09-11T12:09:36.840Z,3.42
2022-09-11T12:12:47.921Z,5.80
2022-09-11T12:16:03.932Z,8.23
2022-09-11T12:19:17.367Z,8.30
2022-09-11T12:22:37.344Z,4.63
2022-09-11T12:26:09.199Z,5.50
2022-09-11T12:29:29.118Z,7.28
2022-09-11T12:32:47.396Z,5.32
2022-09-11T12:35:57.189Z,4.78
2022-09-11T12:39:03.501Z,7.85
2022-09-11T12:42:23.452Z,5.22
2022-09-11T12:45:38.709Z,5.65
2022-09-11T12:48:56.176Z,6.45
2022-09-11T12:52:21.673Z,6.75
2022-09-11T12:55:39.875Z,4.63
2022-09-11T12:58:47.974Z,3.15
2022-09-11T13:01:53.533Z,3.63
2022-09-11T13:04:59.133Z,2.25
2022-09-11T13:08:08.296Z,3.83
2022-09-11T13:11:28.498Z,5.32
2022-09-11T13:14:53.088Z,6.57
2022-09-11T13:17:58.060Z,5.25
2022-09-11T13:21:05.096Z,2.15
2022-09-11T13:24:26.920Z,7.45
2022-09-11T13:27:36.432Z,2.90
2022-09-11T13:30:51.600Z,4.53
2022-09-11T13:33:56.650Z,5.65
2022-09-11T13:37:02.035Z,5.43
2022-09-11T13:40:08.749Z,5.60
2022-09-11T13:43:18.306Z,5.80
2022-09-11T13:46:25.125Z,6.57
2022-09-11T13:49:35.483Z,9.10
2022-09-11T13:52:40.600Z,4.18
2022-09-11T13:55:48.942Z,6.47
2022-09-11T13:59:00.031Z,5.97
2022-09-11T14:02:09.979Z,5.40
2022-09-11T14:05:19.388Z,9.57
2022-09-11T14:08:26.221Z,6.32
2022-09-11T14:11:32.545Z,5.80
2022-09-11T14:14:41.662Z,6.97
2022-09-11T14:17:46.946Z,3.90
2022-09-11T14:20:51.985Z,5.88
2022-09-11T14:23:57.959Z,9.77
2022-09-11T14:27:04.504Z,4.45
2022-09-11T14:30:24.404Z,5.30
2022-09-11T14:33:32.319Z,3.65
2022-09-11T14:36:40.271Z,3.63
2022-09-11T14:39:46.636Z,4.95
2022-09-11T14:42:51.993Z,9.50
2022-09-11T14:45:58.034Z,4.32
2022-09-11T14:49:05.913Z,9.82
2022-09-11T14:52:15.772Z,8.13
2022-09-11T14:55:22.067Z,6.95
2022-09-11T14:58:27.263Z,6.95
2022-09-11T15:01:33.538Z,5.65
2022-09-11T15:04:41.405Z,11.10
2022-09-11T15:07:47.287Z,5.32
2022-09-11T15:10:53.701Z,7.57
2022-09-11T15:14:14.791Z,6.38
2022-09-11T15:17:25.244Z,4.30
2022-09-11T15:20:33.055Z,6.85
2022-09-11T15:23:38.504Z,8.20
2022-09-11T15:26:43.786Z,9.95
2022-09-11T15:29:48.791Z,6.32
2022-09-11T15:32:54.063Z,8.93
2022-09-11T15:36:03.789Z,6.35
2022-09-11T15:39:08.955Z,7.20
2022-09-11T15:42:14.315Z,6.30
2022-09-11T15:45:19.734Z,8.05
2022-09-11T15:48:25.154Z,6.25
2022-09-11T15:51:33.012Z,4.63
2022-09-11T15:54:38.105Z,9.38
2022-09-11T15:57:43.242Z,13.02
2022-09-11T16:00:49.001Z,8.48
2022-09-11T16:03:54.370Z,6.15
2022-09-11T16:07:02.534Z,6.13
2022-09-11T16:10:08.217Z,4.78
2022-09-11T16:13:13.575Z,7.22
2022-09-11T16:16:18.925Z,10.77
2022-09-11T16:19:28.241Z,5.70
2022-09-11T16:22:36.095Z,7.00
2022-09-11T16:25:41.669Z,6.27
2022-09-11T16:28:47.501Z,8.00
2022-09-11T16:31:52.886Z,9.32
2022-09-11T16:34:59.624Z,8.57
2022-09-11T16:38:08.008Z,6.68
2022-09-11T16:41:16.321Z,7.13
2022-09-11T16:44:22.902Z,4.85
2022-09-11T16:47:30.595Z,6.90
2022-09-11T16:50:36.097Z,7.77
2022-09-11T16:53:45.382Z,9.02
2022-09-11T16:56:50.506Z,6.55
2022-09-11T16:59:55.782Z,10.38
2022-09-11T17:03:01.107Z,7.38
2022-09-11T17:06:07.256Z,10.95
2022-09-11T17:09:14.967Z,7.30
2022-09-11T17:12:21.595Z,11.20
2022-09-11T17:15:26.903Z,6.90
2022-09-11T17:18:32.020Z,10.02
2022-09-11T17:21:38.102Z,8.55
2022-09-11T17:24:45.882Z,10.82
2022-09-11T17:27:51.177Z,7.73
2022-09-11T17:30:56.150Z,16.73
2022-09-11T17:34:01.249Z,11.95
2022-09-11T17:37:06.678Z,9.82
2022-09-11T17:40:14.707Z,9.50
2022-09-11T17:43:20.022Z,12.90
2022-09-11T17:46:26.463Z,13.15
2022-09-11T17:49:31.750Z,9.70
2022-09-11T17:52:37.174Z,15.60
2022-09-11T17:55:46.670Z,33.75
2022-09-11T17:58:53.098Z,13.27
2022-09-11T18:02:00.023Z,8.25
2022-09-11T18:05:05.397Z,8.13
2022-09-11T18:08:10.719Z,10.13
2022-09-11T18:11:18.621Z,10.60
2022-09-11T18:14:23.792Z,9.27
2022-09-11T18:17:28.938Z,13.38
2022-09-11T18:20:34.564Z,7.30
2022-09-11T18:23:39.923Z,11.35
2022-09-11T18:26:49.743Z,9.43
2022-09-11T18:29:55.203Z,15.05
2022-09-11T18:33:00.330Z,13.45
2022-09-11T18:36:07.831Z,9.90
2022-09-11T18:39:13.980Z,6.18
2022-09-11T18:42:21.866Z,9.30
2022-09-11T18:45:28.698Z,6.35
2022-09-11T18:48:35.499Z,9.60
2022-09-11T18:51:40.768Z,7.90
2022-09-11T18:54:45.837Z,8.80
2022-09-11T18:57:53.866Z,18.20
2022-09-11T19:01:00.642Z,9.02
2022-09-11T19:04:10.359Z,7.45
2022-09-11T19:07:16.130Z,11.32
2022-09-11T19:10:21.843Z,7.05
2022-09-11T19:13:30.390Z,9.25
2022-09-11T19:16:35.692Z,8.32
2022-09-11T19:19:41.061Z,9.38
2022-09-11T19:22:46.019Z,18.23
2022-09-11T19:25:51.677Z,8.57
2022-09-11T19:29:00.510Z,7.65
2022-09-11T19:32:05.691Z,13.30
2022-09-11T19:35:10.682Z,8.07
2022-09-11T19:38:15.885Z,11.73
2022-09-11T19:41:22.290Z,13.77
2022-09-11T19:44:34.779Z,10.10
2022-09-11T19:47:40.066Z,8.00
2022-09-11T19:50:48.328Z,9.75
2022-09-11T19:57:00.238Z,10.38
2022-09-11T20:00:09.239Z,9.40
2022-09-11T20:03:14.416Z,11.07
2022-09-11T20:06:21.241Z,10.40
2022-09-11T20:09:33.398Z,9.43
2022-09-11T20:12:39.141Z,9.75
2022-09-11T20:15:46.914Z,10.05
2022-09-11T20:18:52.165Z,12.20
2022-09-11T20:21:57.356Z,14.73
2022-09-11T20:25:02.431Z,13.70
2022-09-11T20:28:10.812Z,11.50
2022-09-11T20:31:20.061Z,12.57
2022-09-11T20:34:28.168Z,11.68
2022-09-11T20:37:34.257Z,10.10
2022-09-11T20:40:39.972Z,14.07
2022-09-11T20:43:45.532Z,11.02
2022-09-11T20:46:53.752Z,15.35
2022-09-11T20:50:00.527Z,12.10
2022-09-11T20:53:06.059Z,13.48
2022-09-11T20:56:12.139Z,11.68
2022-09-11T20:59:17.850Z,15.15
2022-09-11T21:02:26.093Z,13.07
2022-09-11T21:05:31.454Z,15.18
2022-09-11T21:08:37.012Z,12.88
2022-09-11T21:11:43.637Z,12.15
2022-09-11T21:14:48.888Z,12.80
2022-09-11T21:17:56.982Z,18.02
2022-09-11T21:21:02.144Z,13.52
2022-09-11T21:24:08.567Z,14.68
2022-09-11T21:27:13.549Z,18.00
2022-09-11T21:30:18.797Z,14.32
2022-09-11T21:33:26.408Z,18.83
2022-09-11T21:36:32.529Z,17.23
2022-09-11T21:39:38.365Z,18.95
2022-09-11T21:42:43.753Z,15.50
2022-09-11T21:45:48.961Z,18.23
2022-09-11T21:48:56.710Z,15.73
2022-09-11T21:52:02.977Z,17.23
2022-09-11T21:55:08.846Z,12.23
2022-09-11T21:58:17.440Z,17.70
2022-09-11T22:01:23.279Z,21.70
2022-09-11T22:04:31.068Z,18.23
2022-09-11T22:07:36.579Z,18.30
2022-09-11T22:10:44.288Z,15.10
2022-09-11T22:13:49.588Z,16.58
2022-09-11T22:16:54.766Z,17.80
2022-09-11T22:20:02.602Z,13.75
2022-09-11T22:23:08.840Z,13.65
2022-09-11T22:26:15.239Z,16.65
2022-09-11T22:29:20.449Z,17.17
2022-09-11T22:32:25.748Z,14.05
2022-09-11T22:35:37.051Z,15.55
2022-09-11T22:38:42.243Z,15.68
2022-09-11T22:41:47.376Z,18.88
2022-09-11T22:44:52.494Z,11.98
2022-09-11T22:47:57.805Z,16.70
2022-09-11T22:51:05.777Z,14.80
2022-09-11T22:54:10.994Z,12.00
2022-09-11T22:57:16.121Z,14.63
2022-09-11T23:00:21.242Z,12.23
2022-09-11T23:03:26.482Z,13.82
2022-09-11T23:06:46.741Z,12.77
2022-09-11T23:09:51.903Z,11.55
2022-09-11T23:12:57.358Z,12.13
2022-09-11T23:16:02.504Z,16.90
2022-09-11T23:19:08.355Z,12.70
2022-09-11T23:22:15.916Z,10.63
2022-09-11T23:25:21.309Z,14.48
2022-09-11T23:28:26.416Z,11.10
2022-09-11T23:31:32.667Z,12.02
2022-09-11T23:34:37.895Z,8.57
2022-09-11T23:37:46.079Z,13.25
2022-09-11T23:40:51.165Z,12.57
2022-09-11T23:43:56.394Z,10.65
2022-09-11T23:47:02.456Z,12.57
2022-09-11T23:50:07.743Z,11.70
2022-09-11T23:53:15.540Z,14.82
2022-09-11T23:56:21.154Z,11.98
2022-09-11T23:59:26.673Z,12.88
